KCOT/COT METAR and TAF weather

Enter ICAO airport designator
Station Type Date Time Source
KCOT METAR 2019/10/16 18:53 UTC NOAA

KCOT 161853Z AUTO 34005KT 10SM -RA BKN024 BKN075 OVC100 18/18 A3015 RMK AO2 SLP203 P0006 T01780178 $


Station Type Date Time Source
KCOT Decoded METAR 2019/10/16 18:53 UTC NOAA

COTULLA-LASALLE COUNTY AIRPORT , TX, United States (KCOT) 28-27N 099-13W 140M
Oct 16, 2019 - 02:53 PM EDT / 2019.10.16 1853 UTC
Wind: from the NNW (340 degrees) at 6 MPH (5 KT):0
Visibility: 10 mile(s):0
Sky conditions: overcast
Weather: light rain
Precipitation last hour: 0.06 inches
Temperature: 64.0 F (17.8 C)
Dew Point: 64.0 F (17.8 C)
Relative Humidity: 100%
Pressure (altimeter): 30.15 in. Hg (1020 hPa)
ob: KCOT 161853Z AUTO 34005KT 10SM -RA BKN024 BKN075 OVC100 18/18 A3015 RMK AO2 SLP203 P0006 T01780178
cycle: 19

Station Type Date Time Source
KCOT TAF 2019/10/16 18:21 UTC NOAA

TAF KCOT 161720Z 1618/1718 03013KT P6SM VCSH SCT020 OVC035
FM162300 03008KT P6SM OVC030

Example: see airport list